Time;durP1;ratioP1;P1;durP2;ratioP2;P2;SDS_P1;SDS_P2;PMS_P1;PMS_P2;Temp;Humidity;BMP_temperature;BMP_pressure;BME280_temperature;BME280_humidity;BME280_pressure;Samples;Min_cycle;Max_cycle;Signal;HPM_P1;HPM_P2
2023/06/27 00:02:03;;;;;;;3.50;1.67;;;;;;;;;;4954221;28;20302;-87
2023/06/27 00:04:34;;;;;;;0.53;0.53;;;;;;;;;;4954102;28;20202;-87
2023/06/27 00:07:02;;;;;;;0.40;0.40;;;;;;;;;;4954083;28;20194;-87
2023/06/27 00:09:31;;;;;;;7.00;2.00;;;;;;;;;;4953271;28;20206;-88
2023/06/27 00:11:59;;;;;;;2.30;1.33;;;;;;;;;;4954146;28;20208;-88
2023/06/27 00:14:28;;;;;;;4.40;1.77;;;;;;;;;;4953474;28;20245;-87
2023/06/27 00:16:57;;;;;;;1.13;1.13;;;;;;;;;;4952627;28;20199;-85
2023/06/27 00:19:25;;;;;;;4.17;1.57;;;;;;;;;;4950989;28;20209;-85
2023/06/27 00:21:55;;;;;;;1.50;1.10;;;;;;;;;;4952310;28;20223;-85
2023/06/27 00:24:24;;;;;;;1.63;0.47;;;;;;;;;;4952548;28;20205;-85
2023/06/27 00:26:53;;;;;;;0.60;0.60;;;;;;;;;;4951700;28;20268;-85
2023/06/27 00:29:23;;;;;;;0.60;0.60;;;;;;;;;;4952068;28;20254;-85
2023/06/27 00:31:51;;;;;;;0.43;0.43;;;;;;;;;;4951914;28;20206;-85
2023/06/27 00:34:20;;;;;;;0.30;0.30;;;;;;;;;;4952307;28;20209;-85
2023/06/27 00:36:49;;;;;;;1.90;1.70;;;;;;;;;;4951662;28;20204;-85
2023/06/27 00:39:22;;;;;;;4.80;0.83;;;;;;;;;;4952164;28;20200;-85
2023/06/27 00:41:50;;;;;;;0.40;0.40;;;;;;;;;;4952031;28;20219;-85
2023/06/27 00:44:19;;;;;;;0.33;0.33;;;;;;;;;;4951327;28;20205;-85
2023/06/27 00:46:52;;;;;;;1.50;1.17;;;;;;;;;;4952272;28;20198;-85
2023/06/27 00:49:24;;;;;;;0.70;0.70;;;;;;;;;;4952610;28;20210;-85
2023/06/27 00:51:53;;;;;;;0.30;0.30;;;;;;;;;;4952102;28;20205;-85
2023/06/27 00:54:24;;;;;;;0.30;0.30;;;;;;;;;;4951576;28;20215;-85
2023/06/27 00:56:54;;;;;;;0.80;0.80;;;;;;;;;;4952308;28;20205;-86
2023/06/27 00:59:22;;;;;;;0.53;0.53;;;;;;;;;;4951789;28;20209;-85
2023/06/27 01:01:50;;;;;;;0.70;0.70;;;;;;;;;;4951289;28;20231;-85
2023/06/27 01:04:19;;;;;;;0.50;0.50;;;;;;;;;;4951936;28;20212;-85
2023/06/27 01:06:52;;;;;;;1.03;1.03;;;;;;;;;;4952629;28;20209;-87
2023/06/27 01:09:27;;;;;;;0.73;0.73;;;;;;;;;;4952469;28;20207;-87
2023/06/27 01:11:59;;;;;;;0.50;0.50;;;;;;;;;;4952332;28;20204;-87
2023/06/27 01:14:29;;;;;;;1.30;1.07;;;;;;;;;;4952299;28;20207;-87
2023/06/27 01:16:58;;;;;;;0.70;0.70;;;;;;;;;;4952146;28;20198;-85
2023/06/27 01:19:31;;;;;;;1.63;1.37;;;;;;;;;;4951163;28;20203;-85
2023/06/27 01:22:02;;;;;;;0.83;0.83;;;;;;;;;;4951585;28;20219;-85
2023/06/27 01:24:32;;;;;;;0.60;0.60;;;;;;;;;;4951879;28;20229;-85
2023/06/27 01:27:01;;;;;;;3.10;1.13;;;;;;;;;;4951505;28;20209;-85
2023/06/27 01:29:32;;;;;;;1.70;1.30;;;;;;;;;;4950975;28;20207;-85
2023/06/27 01:32:05;;;;;;;1.00;1.00;;;;;;;;;;4951256;28;20225;-85
2023/06/27 01:34:35;;;;;;;0.80;0.80;;;;;;;;;;4951196;28;20197;-85
2023/06/27 01:37:05;;;;;;;0.87;0.87;;;;;;;;;;4950907;28;20241;-85
2023/06/27 01:39:39;;;;;;;1.93;0.90;;;;;;;;;;4951270;28;20209;-85
2023/06/27 01:42:11;;;;;;;0.43;0.43;;;;;;;;;;4951257;28;20230;-85
2023/06/27 01:44:40;;;;;;;0.73;0.73;;;;;;;;;;4950779;28;20205;-85
2023/06/27 01:47:10;;;;;;;1.80;1.70;;;;;;;;;;4950987;28;20251;-85
2023/06/27 01:49:41;;;;;;;3.90;1.40;;;;;;;;;;4951896;28;20255;-87
2023/06/27 01:52:12;;;;;;;0.97;0.97;;;;;;;;;;4952379;28;20201;-87
2023/06/27 01:54:42;;;;;;;0.70;0.70;;;;;;;;;;4952427;28;20233;-87
2023/06/27 01:57:11;;;;;;;1.00;0.90;;;;;;;;;;4952551;28;20220;-85
2023/06/27 01:59:40;;;;;;;0.60;0.60;;;;;;;;;;4951302;28;20231;-85
2023/06/27 02:02:09;;;;;;;1.33;1.10;;;;;;;;;;4950949;28;20214;-85
2023/06/27 02:04:37;;;;;;;0.70;0.70;;;;;;;;;;4951625;28;20197;-85
2023/06/27 02:07:06;;;;;;;2.60;1.03;;;;;;;;;;4951703;28;20205;-87
2023/06/27 02:09:35;;;;;;;0.53;0.53;;;;;;;;;;4952443;28;20233;-87
2023/06/27 02:12:05;;;;;;;1.20;0.73;;;;;;;;;;4951415;28;20271;-87
2023/06/27 02:14:33;;;;;;;0.63;0.63;;;;;;;;;;4952539;28;20210;-87
2023/06/27 02:17:02;;;;;;;0.60;0.60;;;;;;;;;;4951790;28;20206;-87
2023/06/27 02:19:30;;;;;;;0.43;0.43;;;;;;;;;;4952170;28;20213;-87
2023/06/27 02:21:59;;;;;;;1.70;1.17;;;;;;;;;;4952074;28;20218;-87
2023/06/27 02:24:27;;;;;;;0.80;0.80;;;;;;;;;;4952470;28;20198;-87
2023/06/27 02:26:56;;;;;;;0.40;0.40;;;;;;;;;;4951564;28;20198;-87
2023/06/27 02:29:26;;;;;;;0.40;0.40;;;;;;;;;;4951697;28;20234;-87
2023/06/27 02:31:54;;;;;;;0.50;0.50;;;;;;;;;;4952470;28;20213;-87
2023/06/27 02:34:23;;;;;;;1.10;0.70;;;;;;;;;;4951037;28;20194;-85
2023/06/27 02:36:51;;;;;;;0.50;0.50;;;;;;;;;;4950632;28;20202;-85
2023/06/27 02:39:20;;;;;;;2.57;0.80;;;;;;;;;;4950375;28;20208;-85
2023/06/27 02:41:51;;;;;;;0.40;0.40;;;;;;;;;;4950717;28;20225;-87
2023/06/27 02:44:21;;;;;;;0.73;0.73;;;;;;;;;;4954767;28;20229;-87
2023/06/27 02:46:50;;;;;;;0.40;0.40;;;;;;;;;;4954726;28;20202;-87
2023/06/27 02:49:19;;;;;;;0.63;0.63;;;;;;;;;;4955398;28;20199;-87
2023/06/27 02:51:49;;;;;;;0.50;0.50;;;;;;;;;;4955338;28;20312;-87
2023/06/27 02:54:18;;;;;;;0.60;0.60;;;;;;;;;;4954521;28;20209;-85
2023/06/27 02:56:46;;;;;;;1.20;1.10;;;;;;;;;;4953726;28;20209;-85
2023/06/27 02:59:15;;;;;;;0.90;0.90;;;;;;;;;;4953397;28;20205;-85
2023/06/27 03:01:43;;;;;;;1.33;1.23;;;;;;;;;;4953466;28;20236;-85
2023/06/27 03:04:13;;;;;;;2.20;0.57;;;;;;;;;;4953177;28;20201;-85
2023/06/27 03:06:47;;;;;;;1.03;0.63;;;;;;;;;;4953267;28;20193;-85
2023/06/27 03:09:18;;;;;;;0.77;0.77;;;;;;;;;;4953486;28;20206;-85
2023/06/27 03:11:47;;;;;;;2.77;0.77;;;;;;;;;;4953149;28;20202;-85
2023/06/27 03:14:17;;;;;;;4.37;1.40;;;;;;;;;;4953627;28;20219;-85
2023/06/27 03:16:45;;;;;;;1.23;0.87;;;;;;;;;;4953901;28;20206;-85
2023/06/27 03:19:15;;;;;;;0.40;0.40;;;;;;;;;;4953454;28;20280;-85
2023/06/27 03:21:54;;;;;;;0.30;0.30;;;;;;;;;;4952971;28;20221;-85
2023/06/27 03:24:23;;;;;;;0.43;0.43;;;;;;;;;;4953440;28;20204;-85
2023/06/27 03:26:53;;;;;;;0.63;0.63;;;;;;;;;;4953318;28;20209;-83
2023/06/27 03:29:25;;;;;;;0.40;0.40;;;;;;;;;;4952721;28;20268;-85
2023/06/27 03:31:57;;;;;;;0.60;0.60;;;;;;;;;;4952859;28;20190;-85
2023/06/27 03:34:27;;;;;;;0.40;0.40;;;;;;;;;;4953721;28;20205;-85
2023/06/27 03:36:56;;;;;;;1.93;1.83;;;;;;;;;;4953050;28;20229;-85
2023/06/27 03:39:24;;;;;;;0.60;0.60;;;;;;;;;;4952551;28;20209;-85
2023/06/27 03:41:52;;;;;;;1.30;0.90;;;;;;;;;;4953273;28;20226;-85
2023/06/27 03:44:24;;;;;;;0.40;0.40;;;;;;;;;;4952773;28;20205;-85
2023/06/27 03:46:52;;;;;;;2.07;1.73;;;;;;;;;;4952901;28;20199;-85
2023/06/27 03:49:24;;;;;;;0.37;0.37;;;;;;;;;;4952924;28;20207;-85
2023/06/27 03:51:54;;;;;;;3.90;1.10;;;;;;;;;;4953388;28;20281;-85
2023/06/27 03:54:23;;;;;;;5.83;0.80;;;;;;;;;;4952507;28;20208;-85
2023/06/27 03:56:51;;;;;;;0.30;0.30;;;;;;;;;;4952613;28;20203;-85
2023/06/27 03:59:19;;;;;;;0.47;0.47;;;;;;;;;;4952350;28;20225;-85
2023/06/27 04:01:51;;;;;;;0.40;0.40;;;;;;;;;;4952666;28;20210;-85
2023/06/27 04:04:21;;;;;;;0.73;0.73;;;;;;;;;;4952377;28;20202;-86
2023/06/27 04:06:50;;;;;;;0.30;0.30;;;;;;;;;;4952825;28;20216;-85
2023/06/27 04:09:20;;;;;;;0.60;0.60;;;;;;;;;;4952226;28;20207;-86
2023/06/27 04:11:49;;;;;;;0.50;0.50;;;;;;;;;;4952247;28;20202;-86
2023/06/27 04:14:18;;;;;;;0.30;0.30;;;;;;;;;;4952126;28;20259;-85
2023/06/27 04:16:46;;;;;;;0.40;0.40;;;;;;;;;;4953050;28;20217;-86
2023/06/27 04:19:15;;;;;;;0.30;0.30;;;;;;;;;;4952137;28;20191;-86
2023/06/27 04:21:43;;;;;;;0.70;0.70;;;;;;;;;;4952966;28;20202;-86
2023/06/27 04:24:12;;;;;;;0.37;0.37;;;;;;;;;;4954064;28;20209;-87
2023/06/27 04:26:42;;;;;;;0.37;0.37;;;;;;;;;;4954137;28;20201;-87
2023/06/27 04:29:11;;;;;;;0.30;0.30;;;;;;;;;;4953852;28;20210;-87
2023/06/27 04:31:40;;;;;;;0.70;0.70;;;;;;;;;;4954248;28;20220;-87
2023/06/27 04:34:08;;;;;;;1.20;0.90;;;;;;;;;;4953636;28;20211;-85
2023/06/27 04:36:40;;;;;;;0.30;0.30;;;;;;;;;;4952290;28;20284;-85
2023/06/27 04:39:10;;;;;;;0.50;0.50;;;;;;;;;;4951958;28;20302;-85
2023/06/27 04:41:38;;;;;;;0.47;0.47;;;;;;;;;;4952009;28;20261;-85
2023/06/27 04:44:09;;;;;;;0.30;0.30;;;;;;;;;;4951714;28;20255;-85
2023/06/27 04:46:37;;;;;;;0.60;0.60;;;;;;;;;;4951950;28;20207;-84
2023/06/27 04:49:08;;;;;;;0.67;0.67;;;;;;;;;;4951899;28;20216;-85
2023/06/27 04:51:37;;;;;;;0.30;0.30;;;;;;;;;;4952306;28;20216;-85
2023/06/27 04:54:05;;;;;;;0.77;0.77;;;;;;;;;;4952353;28;20205;-85
2023/06/27 04:56:34;;;;;;;1.60;0.80;;;;;;;;;;4951384;28;20248;-85
2023/06/27 04:59:02;;;;;;;1.93;1.23;;;;;;;;;;4952204;28;20210;-85
2023/06/27 05:01:32;;;;;;;1.07;1.07;;;;;;;;;;4951935;28;20207;-86
2023/06/27 05:04:04;;;;;;;3.27;0.73;;;;;;;;;;4951633;28;20229;-86
2023/06/27 05:06:36;;;;;;;0.37;0.37;;;;;;;;;;4950692;28;20193;-85
2023/06/27 05:09:04;;;;;;;3.07;2.97;;;;;;;;;;4951487;28;20213;-85
2023/06/27 05:11:33;;;;;;;0.80;0.80;;;;;;;;;;4951744;28;20219;-86
2023/06/27 05:14:01;;;;;;;0.47;0.47;;;;;;;;;;4951236;28;20204;-85
2023/06/27 05:16:31;;;;;;;0.70;0.70;;;;;;;;;;4951662;28;20215;-85
2023/06/27 05:19:01;;;;;;;0.83;0.80;;;;;;;;;;4952163;28;20210;-85
2023/06/27 05:21:30;;;;;;;0.50;0.50;;;;;;;;;;4952046;28;20241;-87
2023/06/27 05:23:59;;;;;;;0.50;0.50;;;;;;;;;;4952623;28;20227;-87
2023/06/27 05:26:27;;;;;;;0.70;0.70;;;;;;;;;;4952548;28;20233;-87
2023/06/27 05:28:57;;;;;;;1.27;1.17;;;;;;;;;;4952891;28;20227;-87
2023/06/27 05:31:26;;;;;;;0.40;0.40;;;;;;;;;;4952572;28;20209;-87
2023/06/27 05:33:55;;;;;;;1.80;1.70;;;;;;;;;;4952718;28;20197;-87
2023/06/27 05:36:24;;;;;;;3.70;1.53;;;;;;;;;;4952692;28;20208;-87
2023/06/27 05:38:53;;;;;;;0.67;0.67;;;;;;;;;;4952740;28;20201;-87
2023/06/27 05:41:21;;;;;;;1.40;1.30;;;;;;;;;;4952470;28;20212;-87
2023/06/27 05:43:50;;;;;;;0.60;0.60;;;;;;;;;;4952212;28;20249;-87
2023/06/27 05:46:19;;;;;;;0.40;0.40;;;;;;;;;;4952521;28;20213;-87
2023/06/27 05:48:48;;;;;;;1.43;1.33;;;;;;;;;;4951859;28;20203;-87
2023/06/27 05:51:16;;;;;;;0.50;0.50;;;;;;;;;;4952079;28;20256;-87
2023/06/27 05:53:46;;;;;;;1.43;1.37;;;;;;;;;;4951810;28;20202;-87
2023/06/27 05:56:14;;;;;;;0.77;0.77;;;;;;;;;;4950871;28;20241;-87
2023/06/27 05:58:43;;;;;;;2.67;1.47;;;;;;;;;;4951936;28;20282;-85
2023/06/27 06:01:11;;;;;;;0.97;0.97;;;;;;;;;;4951022;28;20203;-84
2023/06/27 06:03:43;;;;;;;0.50;0.50;;;;;;;;;;4950988;28;20224;-85
2023/06/27 06:06:12;;;;;;;0.77;0.77;;;;;;;;;;4950759;28;20279;-84
2023/06/27 06:08:40;;;;;;;1.13;1.13;;;;;;;;;;4951154;28;20204;-84
2023/06/27 06:11:10;;;;;;;0.50;0.50;;;;;;;;;;4951851;28;20213;-84
2023/06/27 06:13:39;;;;;;;1.33;1.30;;;;;;;;;;4950480;28;20200;-83
2023/06/27 06:16:08;;;;;;;3.43;1.10;;;;;;;;;;4951120;28;20222;-84
2023/06/27 06:18:36;;;;;;;1.53;0.90;;;;;;;;;;4954224;28;20209;-83
2023/06/27 06:21:05;;;;;;;0.67;0.67;;;;;;;;;;4954409;28;20207;-83
2023/06/27 06:23:33;;;;;;;1.10;1.00;;;;;;;;;;4953885;28;20220;-85
2023/06/27 06:26:02;;;;;;;0.87;0.87;;;;;;;;;;4956229;28;20215;-85
2023/06/27 06:28:32;;;;;;;1.30;1.30;;;;;;;;;;4954238;28;20229;-85
2023/06/27 06:31:00;;;;;;;0.70;0.70;;;;;;;;;;4953570;28;20203;-85
2023/06/27 06:33:29;;;;;;;1.13;1.00;;;;;;;;;;4953975;28;20198;-85
2023/06/27 06:35:57;;;;;;;2.27;0.90;;;;;;;;;;4953875;28;20216;-85
2023/06/27 06:38:26;;;;;;;0.90;0.90;;;;;;;;;;4953546;28;20219;-83
2023/06/27 06:40:55;;;;;;;0.40;0.40;;;;;;;;;;4953240;28;20287;-83
2023/06/27 06:43:25;;;;;;;1.77;1.10;;;;;;;;;;4954121;28;20228;-83
2023/06/27 06:45:55;;;;;;;1.37;1.27;;;;;;;;;;4953681;28;20300;-84
2023/06/27 06:48:26;;;;;;;2.73;1.17;;;;;;;;;;4953372;28;20203;-85
2023/06/27 06:50:54;;;;;;;1.40;0.80;;;;;;;;;;4954310;28;20210;-85
2023/06/27 06:53:23;;;;;;;0.73;0.63;;;;;;;;;;4953645;28;20211;-84
2023/06/27 06:55:51;;;;;;;0.60;0.60;;;;;;;;;;4953590;28;20233;-85
2023/06/27 06:58:20;;;;;;;1.27;0.93;;;;;;;;;;4953576;28;20213;-84
2023/06/27 07:00:48;;;;;;;2.80;1.13;;;;;;;;;;4953948;28;20199;-84
2023/06/27 07:03:19;;;;;;;3.23;1.23;;;;;;;;;;4953645;28;20209;-85
2023/06/27 07:05:48;;;;;;;1.60;1.50;;;;;;;;;;4952537;28;20204;-85
2023/06/27 07:08:17;;;;;;;2.97;1.67;;;;;;;;;;4953797;28;20215;-85
2023/06/27 07:10:46;;;;;;;2.10;0.97;;;;;;;;;;4953777;28;20205;-85
2023/06/27 07:13:14;;;;;;;2.03;1.37;;;;;;;;;;4953582;28;20228;-85
2023/06/27 07:15:44;;;;;;;0.40;0.40;;;;;;;;;;4953578;28;20298;-85
2023/06/27 07:18:12;;;;;;;1.50;0.50;;;;;;;;;;4953740;28;20204;-84
2023/06/27 07:20:42;;;;;;;4.37;1.60;;;;;;;;;;4952958;28;20206;-85
2023/06/27 07:23:11;;;;;;;0.93;0.90;;;;;;;;;;4953050;28;20204;-85
2023/06/27 07:25:39;;;;;;;4.33;1.07;;;;;;;;;;4953108;28;20229;-83
2023/06/27 07:28:09;;;;;;;2.20;0.90;;;;;;;;;;4952408;28;20222;-83
2023/06/27 07:30:38;;;;;;;1.70;0.90;;;;;;;;;;4952408;28;20278;-84
2023/06/27 07:33:07;;;;;;;1.00;0.73;;;;;;;;;;4953194;28;20209;-84
2023/06/27 07:35:36;;;;;;;1.90;1.03;;;;;;;;;;4953464;28;20202;-84
2023/06/27 07:38:06;;;;;;;2.30;1.00;;;;;;;;;;4953146;28;20217;-84
2023/06/27 07:40:34;;;;;;;0.80;0.80;;;;;;;;;;4952516;28;20215;-83
2023/06/27 07:43:03;;;;;;;2.47;1.17;;;;;;;;;;4953028;28;20227;-82
2023/06/27 07:45:31;;;;;;;2.03;0.73;;;;;;;;;;4952894;28;20228;-85
2023/06/27 07:48:00;;;;;;;1.60;0.93;;;;;;;;;;4952790;28;20207;-85
2023/06/27 07:50:28;;;;;;;0.60;0.60;;;;;;;;;;4952975;28;20213;-85
2023/06/27 07:52:57;;;;;;;0.40;0.40;;;;;;;;;;4952962;28;20270;-82
2023/06/27 07:55:27;;;;;;;0.90;0.90;;;;;;;;;;4952432;28;20227;-82
2023/06/27 07:57:55;;;;;;;0.70;0.70;;;;;;;;;;4952141;28;20211;-83
2023/06/27 08:00:24;;;;;;;0.50;0.50;;;;;;;;;;4952559;28;20196;-84
2023/06/27 08:02:52;;;;;;;0.90;0.90;;;;;;;;;;4953074;28;20231;-84
2023/06/27 08:05:21;;;;;;;0.67;0.67;;;;;;;;;;4952855;28;20403;-84
2023/06/27 08:07:50;;;;;;;0.60;0.60;;;;;;;;;;4952819;28;20208;-84
2023/06/27 08:10:18;;;;;;;2.83;1.00;;;;;;;;;;4952478;28;20209;-84
2023/06/27 08:12:48;;;;;;;3.60;1.50;;;;;;;;;;4952780;28;20253;-84
2023/06/27 08:15:17;;;;;;;2.70;0.87;;;;;;;;;;4952213;28;20201;-83
2023/06/27 08:17:46;;;;;;;1.37;1.37;;;;;;;;;;4953190;28;20227;-84
2023/06/27 08:20:15;;;;;;;0.77;0.77;;;;;;;;;;4952856;28;20287;-84
2023/06/27 08:22:44;;;;;;;0.40;0.40;;;;;;;;;;4952352;28;20234;-84
2023/06/27 08:25:16;;;;;;;1.10;1.07;;;;;;;;;;4951555;28;20226;-83
2023/06/27 08:27:44;;;;;;;0.80;0.80;;;;;;;;;;4952439;28;20239;-83
2023/06/27 08:30:14;;;;;;;1.10;0.90;;;;;;;;;;4952352;28;20266;-84
2023/06/27 08:32:43;;;;;;;2.10;0.83;;;;;;;;;;4952520;28;20204;-81
2023/06/27 08:35:13;;;;;;;1.33;1.07;;;;;;;;;;4953306;28;20225;-84
2023/06/27 08:37:44;;;;;;;0.77;0.77;;;;;;;;;;4952887;28;20207;-83
2023/06/27 08:40:20;;;;;;;2.10;1.20;;;;;;;;;;4951475;28;20210;-84
2023/06/27 08:42:48;;;;;;;2.20;1.00;;;;;;;;;;4952252;28;20211;-84
2023/06/27 08:45:18;;;;;;;2.03;1.20;;;;;;;;;;4951953;28;20219;-84
2023/06/27 08:47:48;;;;;;;2.43;1.27;;;;;;;;;;4952622;28;20219;-84
2023/06/27 08:50:17;;;;;;;0.90;0.90;;;;;;;;;;4951479;28;20204;-84
2023/06/27 08:52:48;;;;;;;0.77;0.77;;;;;;;;;;4952575;28;20206;-84
2023/06/27 08:55:20;;;;;;;3.53;1.07;;;;;;;;;;4952196;28;20233;-84
2023/06/27 08:57:49;;;;;;;0.60;0.60;;;;;;;;;;4951666;28;20215;-85
2023/06/27 09:00:22;;;;;;;3.50;1.00;;;;;;;;;;4951728;28;20197;-83
2023/06/27 09:02:51;;;;;;;4.73;1.83;;;;;;;;;;4952342;28;20203;-84
2023/06/27 09:05:22;;;;;;;3.13;1.23;;;;;;;;;;4952184;28;20230;-84
2023/06/27 09:07:50;;;;;;;1.63;0.97;;;;;;;;;;4951902;28;20296;-84
2023/06/27 09:10:19;;;;;;;6.07;1.40;;;;;;;;;;4951973;28;20204;-84
2023/06/27 09:12:49;;;;;;;0.70;0.70;;;;;;;;;;4951992;28;20222;-84
2023/06/27 09:15:19;;;;;;;0.30;0.30;;;;;;;;;;4951699;28;20208;-84
2023/06/27 09:17:50;;;;;;;0.77;0.77;;;;;;;;;;4952214;28;20228;-84
2023/06/27 09:20:19;;;;;;;0.70;0.70;;;;;;;;;;4951416;28;20208;-84
2023/06/27 09:22:52;;;;;;;1.50;0.80;;;;;;;;;;4951998;28;20238;-84
2023/06/27 09:25:24;;;;;;;1.20;1.20;;;;;;;;;;4951531;28;20227;-84
2023/06/27 09:27:52;;;;;;;2.03;1.30;;;;;;;;;;4951943;28;20224;-84
2023/06/27 09:30:24;;;;;;;0.50;0.50;;;;;;;;;;4952031;28;20212;-84
2023/06/27 09:32:54;;;;;;;1.30;0.93;;;;;;;;;;4951843;28;20264;-84
2023/06/27 09:35:26;;;;;;;1.43;0.73;;;;;;;;;;4952020;28;20231;-84
2023/06/27 09:38:14;;;;;;;3.13;0.70;;;;;;;;;;4951580;28;20243;-83
2023/06/27 09:40:48;;;;;;;1.50;0.80;;;;;;;;;;4951078;28;20212;-84
2023/06/27 09:43:17;;;;;;;1.43;0.70;;;;;;;;;;4951190;28;20225;-84
2023/06/27 09:45:57;;;;;;;0.90;0.87;;;;;;;;;;4951790;28;20219;-83
2023/06/27 09:48:26;;;;;;;0.77;0.77;;;;;;;;;;4951962;28;20237;-84
2023/06/27 09:50:59;;;;;;;0.40;0.40;;;;;;;;;;4950879;28;20208;-84
2023/06/27 09:53:31;;;;;;;4.83;1.30;;;;;;;;;;4951354;28;20206;-84
2023/06/27 09:56:02;;;;;;;0.60;0.60;;;;;;;;;;4951387;28;20235;-84
2023/06/27 09:58:31;;;;;;;3.23;1.53;;;;;;;;;;4951508;28;20211;-84
2023/06/27 10:01:05;;;;;;;1.20;1.10;;;;;;;;;;4952310;28;20206;-84
2023/06/27 10:03:34;;;;;;;1.53;1.03;;;;;;;;;;4951943;28;20203;-84
2023/06/27 10:06:03;;;;;;;2.70;1.53;;;;;;;;;;4951367;28;20225;-84
2023/06/27 10:08:52;;;;;;;4.87;1.87;;;;;;;;;;4951234;28;20208;-83
2023/06/27 10:11:20;;;;;;;7.47;0.80;;;;;;;;;;4951426;28;20215;-83
2023/06/27 10:13:49;;;;;;;0.70;0.70;;;;;;;;;;4951327;28;20209;-84
2023/06/27 10:16:20;;;;;;;5.90;1.90;;;;;;;;;;4950986;28;20213;-83
2023/06/27 10:18:48;;;;;;;4.53;1.00;;;;;;;;;;4951755;28;20212;-84
2023/06/27 10:21:18;;;;;;;1.17;0.63;;;;;;;;;;4951605;28;20211;-84
2023/06/27 10:23:48;;;;;;;1.60;0.60;;;;;;;;;;4951353;28;20216;-84
2023/06/27 10:26:19;;;;;;;1.97;0.90;;;;;;;;;;4950812;28;20252;-84
2023/06/27 10:28:51;;;;;;;2.47;1.13;;;;;;;;;;4951046;28;20224;-84
2023/06/27 10:31:50;;;;;;;1.60;0.83;;;;;;;;;;4951637;28;20209;-84
2023/06/27 10:34:20;;;;;;;4.43;1.07;;;;;;;;;;5009637;28;20197;-84
2023/06/27 10:36:53;;;;;;;4.80;1.33;;;;;;;;;;4963036;28;20296;-84
2023/06/27 10:39:28;;;;;;;2.23;1.50;;;;;;;;;;4950972;28;20209;-84
2023/06/27 10:42:01;;;;;;;4.63;1.03;;;;;;;;;;4950663;28;20212;-84
2023/06/27 10:44:30;;;;;;;2.20;1.23;;;;;;;;;;4950983;28;20216;-84
2023/06/27 10:47:17;;;;;;;2.73;1.30;;;;;;;;;;4950827;28;20277;-84
2023/06/27 10:49:52;;;;;;;5.40;1.40;;;;;;;;;;4950716;28;20217;-84
2023/06/27 10:52:21;;;;;;;0.70;0.70;;;;;;;;;;4950730;28;20202;-84
2023/06/27 10:55:05;;;;;;;2.63;1.30;;;;;;;;;;4950446;28;20290;-84
2023/06/27 10:57:39;;;;;;;0.87;0.87;;;;;;;;;;4950223;28;20209;-85
2023/06/27 11:00:13;;;;;;;4.47;0.97;;;;;;;;;;4950256;28;20208;-84
2023/06/27 11:02:43;;;;;;;2.07;1.70;;;;;;;;;;4950571;28;20266;-84
2023/06/27 11:05:17;;;;;;;3.40;1.30;;;;;;;;;;4953741;28;20204;-85
2023/06/27 11:07:53;;;;;;;0.70;0.70;;;;;;;;;;4953316;28;20291;-85
2023/06/27 11:10:25;;;;;;;0.70;0.70;;;;;;;;;;4953331;28;20201;-85
2023/06/27 11:13:14;;;;;;;2.23;0.83;;;;;;;;;;4954864;28;20236;-94
2023/06/27 11:15:43;;;;;;;2.63;1.30;;;;;;;;;;4953484;28;20216;-85
2023/06/27 11:18:13;;;;;;;1.90;1.40;;;;;;;;;;4953276;28;20225;-85
2023/06/27 11:20:43;;;;;;;1.67;1.37;;;;;;;;;;4953467;28;20208;-85
2023/06/27 11:23:13;;;;;;;1.30;1.20;;;;;;;;;;4953935;28;20307;-85
2023/06/27 11:25:43;;;;;;;4.07;1.33;;;;;;;;;;4953293;28;20220;-85
2023/06/27 11:28:12;;;;;;;1.80;1.17;;;;;;;;;;4953268;28;20225;-85
2023/06/27 11:30:41;;;;;;;8.13;1.83;;;;;;;;;;4953304;28;20216;-85
2023/06/27 11:33:11;;;;;;;2.13;1.40;;;;;;;;;;4953037;28;20220;-85
2023/06/27 11:35:41;;;;;;;1.37;0.97;;;;;;;;;;4953332;28;20201;-85
2023/06/27 11:38:11;;;;;;;3.47;1.80;;;;;;;;;;4953159;28;20304;-84
2023/06/27 11:40:48;;;;;;;1.27;0.97;;;;;;;;;;4953417;28;20270;-84
2023/06/27 11:43:18;;;;;;;1.53;1.10;;;;;;;;;;4953015;28;20218;-84
2023/06/27 11:45:47;;;;;;;2.20;1.00;;;;;;;;;;4953625;28;20247;-84
2023/06/27 11:48:16;;;;;;;4.33;1.13;;;;;;;;;;4952997;28;20205;-84
2023/06/27 11:51:05;;;;;;;2.50;1.13;;;;;;;;;;4961971;28;20637;-83
2023/06/27 11:53:39;;;;;;;4.17;1.47;;;;;;;;;;4963885;28;20242;-82
2023/06/27 11:56:08;;;;;;;3.07;1.80;;;;;;;;;;4961918;28;20333;-82
2023/06/27 11:58:40;;;;;;;0.80;0.80;;;;;;;;;;4959701;28;20239;-82
2023/06/27 12:01:12;;;;;;;1.13;0.87;;;;;;;;;;4962730;28;20207;-80
2023/06/27 12:03:42;;;;;;;0.70;0.70;;;;;;;;;;4957632;28;20241;-80
2023/06/27 12:06:24;;;;;;;1.03;0.93;;;;;;;;;;4962766;28;20215;-80
2023/06/27 12:08:54;;;;;;;2.33;1.10;;;;;;;;;;4960131;28;20293;-81
2023/06/27 12:11:32;;;;;;;3.27;2.20;;;;;;;;;;4965028;28;20212;-81
2023/06/27 12:14:01;;;;;;;0.63;0.60;;;;;;;;;;4954651;28;20298;-81
2023/06/27 12:16:33;;;;;;;2.37;1.03;;;;;;;;;;4965161;28;20314;-81
2023/06/27 12:19:05;;;;;;;0.70;0.70;;;;;;;;;;4961388;28;20211;-81
2023/06/27 12:21:34;;;;;;;5.77;1.03;;;;;;;;;;4963332;28;20279;-81
2023/06/27 12:24:04;;;;;;;3.90;1.50;;;;;;;;;;4957114;28;20205;-81
2023/06/27 12:26:35;;;;;;;1.33;1.00;;;;;;;;;;4960295;28;20228;-81
2023/06/27 12:29:04;;;;;;;2.80;1.20;;;;;;;;;;4967494;28;20232;-83
2023/06/27 12:31:33;;;;;;;2.30;1.30;;;;;;;;;;4955949;28;20207;-80
2023/06/27 12:34:02;;;;;;;2.90;1.30;;;;;;;;;;4960728;28;20214;-82
2023/06/27 12:36:32;;;;;;;2.57;0.93;;;;;;;;;;4960897;28;20200;-81
2023/06/27 12:39:01;;;;;;;0.60;0.60;;;;;;;;;;4953860;28;20226;-81
2023/06/27 12:41:31;;;;;;;1.90;0.83;;;;;;;;;;4965506;28;20214;-81
2023/06/27 12:44:00;;;;;;;0.73;0.73;;;;;;;;;;4956461;28;20199;-81
2023/06/27 12:46:28;;;;;;;1.33;0.80;;;;;;;;;;4961077;28;20273;-81
2023/06/27 12:48:57;;;;;;;1.60;0.90;;;;;;;;;;4962958;28;20279;-81
2023/06/27 12:51:26;;;;;;;1.60;0.77;;;;;;;;;;4962931;28;20225;-81
2023/06/27 12:53:54;;;;;;;2.30;2.20;;;;;;;;;;4960792;28;20200;-81
2023/06/27 12:56:23;;;;;;;3.30;1.30;;;;;;;;;;4960279;28;20508;-80
2023/06/27 12:58:53;;;;;;;1.20;1.07;;;;;;;;;;4960254;28;20242;-80
2023/06/27 13:01:23;;;;;;;2.83;1.60;;;;;;;;;;4955461;28;20213;-80
2023/06/27 13:03:52;;;;;;;1.83;1.37;;;;;;;;;;4953268;28;20209;-80
2023/06/27 13:06:21;;;;;;;1.50;0.90;;;;;;;;;;4963416;28;20212;-81
2023/06/27 13:08:51;;;;;;;2.83;0.93;;;;;;;;;;4962761;28;20238;-81
2023/06/27 13:11:21;;;;;;;0.57;0.57;;;;;;;;;;4955246;28;20216;-81
2023/06/27 13:13:54;;;;;;;3.53;0.93;;;;;;;;;;4956577;28;20242;-81
2023/06/27 13:16:24;;;;;;;0.77;0.77;;;;;;;;;;4966431;28;20220;-81
2023/06/27 13:18:53;;;;;;;3.60;0.70;;;;;;;;;;4969116;28;20212;-81
2023/06/27 13:21:23;;;;;;;1.37;0.80;;;;;;;;;;4966881;28;20300;-80
2023/06/27 13:23:53;;;;;;;0.50;0.50;;;;;;;;;;4977526;28;20216;-80
2023/06/27 13:26:25;;;;;;;4.70;1.13;;;;;;;;;;4962664;28;20245;-80
2023/06/27 13:28:53;;;;;;;0.33;0.33;;;;;;;;;;4968131;28;20235;-80
2023/06/27 13:31:24;;;;;;;3.60;1.50;;;;;;;;;;4971572;28;20213;-80
2023/06/27 13:33:54;;;;;;;3.57;1.20;;;;;;;;;;4972470;28;20203;-82
2023/06/27 13:36:23;;;;;;;0.67;0.67;;;;;;;;;;4956890;28;20221;-83
2023/06/27 13:38:51;;;;;;;2.13;1.03;;;;;;;;;;4955510;28;20210;-83
2023/06/27 13:41:20;;;;;;;0.93;0.70;;;;;;;;;;4959116;28;20254;-83
2023/06/27 13:43:48;;;;;;;2.63;1.13;;;;;;;;;;4957416;28;20199;-83
2023/06/27 13:46:17;;;;;;;0.83;0.77;;;;;;;;;;4961276;28;20221;-79
2023/06/27 13:48:45;;;;;;;1.10;1.10;;;;;;;;;;4958675;28;20224;-81
2023/06/27 13:51:16;;;;;;;0.77;0.77;;;;;;;;;;4964824;28;20302;-80
2023/06/27 13:53:45;;;;;;;3.30;1.37;;;;;;;;;;4961344;28;20237;-81
2023/06/27 13:56:14;;;;;;;3.30;1.60;;;;;;;;;;4960267;28;20244;-81
2023/06/27 13:58:45;;;;;;;4.60;1.47;;;;;;;;;;4955451;28;20232;-80
2023/06/27 14:01:14;;;;;;;3.33;1.10;;;;;;;;;;4956758;28;20264;-80
2023/06/27 14:03:42;;;;;;;1.53;1.20;;;;;;;;;;4960220;28;20214;-80
2023/06/27 14:06:15;;;;;;;2.00;1.90;;;;;;;;;;4957190;28;20237;-80
2023/06/27 14:08:44;;;;;;;1.50;0.70;;;;;;;;;;4955142;28;20229;-79
2023/06/27 14:11:15;;;;;;;3.40;0.60;;;;;;;;;;4967517;28;20213;-80
2023/06/27 14:13:44;;;;;;;1.17;1.03;;;;;;;;;;4959328;28;20205;-80
2023/06/27 14:16:13;;;;;;;0.87;0.87;;;;;;;;;;4960322;28;20226;-79
2023/06/27 14:18:43;;;;;;;12.20;0.93;;;;;;;;;;4958750;28;20212;-82
2023/06/27 14:21:11;;;;;;;1.07;0.97;;;;;;;;;;4961392;28;20206;-80
2023/06/27 14:23:41;;;;;;;1.37;1.33;;;;;;;;;;4955980;28;20221;-79
2023/06/27 14:26:11;;;;;;;2.00;0.80;;;;;;;;;;4953803;28;20218;-80
2023/06/27 14:28:39;;;;;;;0.80;0.80;;;;;;;;;;4952815;28;20231;-79
2023/06/27 14:31:08;;;;;;;6.77;1.60;;;;;;;;;;4960107;28;20255;-80
2023/06/27 14:33:37;;;;;;;0.60;0.60;;;;;;;;;;4952812;28;20303;-81
2023/06/27 14:36:07;;;;;;;4.73;0.90;;;;;;;;;;4953556;28;20217;-80
2023/06/27 14:38:53;;;;;;;0.83;0.83;;;;;;;;;;4957244;28;20216;-80
2023/06/27 14:41:22;;;;;;;0.57;0.57;;;;;;;;;;4965424;28;20227;-80
2023/06/27 14:43:50;;;;;;;4.20;1.40;;;;;;;;;;4963651;28;20308;-80
2023/06/27 14:46:19;;;;;;;0.43;0.43;;;;;;;;;;4965398;28;20237;-80
2023/06/27 14:48:50;;;;;;;1.20;1.10;;;;;;;;;;4961215;28;20223;-80
2023/06/27 14:51:18;;;;;;;2.90;1.00;;;;;;;;;;4961727;28;20224;-79
2023/06/27 14:53:47;;;;;;;2.80;1.37;;;;;;;;;;4963612;28;20211;-81
2023/06/27 14:56:17;;;;;;;1.10;0.90;;;;;;;;;;4957224;28;20341;-82
2023/06/27 14:58:46;;;;;;;0.30;0.30;;;;;;;;;;4963801;28;20270;-81
2023/06/27 15:01:14;;;;;;;0.70;0.70;;;;;;;;;;4954769;28;20220;-80